sensor_id;sensor_type;location;lat;lon;timestamp;P1;durP1;ratioP1;P2;durP2;ratioP2
44328;SDS011;30039;51.462;6.892;2022-11-13T00:01:12;16.77;;;9.32;;
44328;SDS011;30039;51.462;6.892;2022-11-13T00:06:51;15.75;;;9.32;;
44328;SDS011;30039;51.462;6.892;2022-11-13T00:09:36;15.25;;;9.00;;
44328;SDS011;30039;51.462;6.892;2022-11-13T00:12:24;36.78;;;17.27;;
44328;SDS011;30039;51.462;6.892;2022-11-13T00:15:09;22.65;;;13.52;;
44328;SDS011;30039;51.462;6.892;2022-11-13T00:17:59;20.00;;;10.50;;
44328;SDS011;30039;51.462;6.892;2022-11-13T00:20:44;19.40;;;10.23;;
44328;SDS011;30039;51.462;6.892;2022-11-13T00:23:31;18.63;;;9.70;;
44328;SDS011;30039;51.462;6.892;2022-11-13T00:26:21;16.38;;;9.45;;
44328;SDS011;30039;51.462;6.892;2022-11-13T00:29:07;16.40;;;9.68;;
44328;SDS011;30039;51.462;6.892;2022-11-13T00:31:53;17.65;;;9.48;;
44328;SDS011;30039;51.462;6.892;2022-11-13T00:34:39;18.00;;;9.40;;
44328;SDS011;30039;51.462;6.892;2022-11-13T00:37:24;16.77;;;9.73;;
44328;SDS011;30039;51.462;6.892;2022-11-13T00:40:10;17.52;;;9.32;;
44328;SDS011;30039;51.462;6.892;2022-11-13T00:42:56;17.25;;;8.75;;
44328;SDS011;30039;51.462;6.892;2022-11-13T00:45:41;16.67;;;9.30;;
44328;SDS011;30039;51.462;6.892;2022-11-13T00:48:27;15.73;;;9.25;;
44328;SDS011;30039;51.462;6.892;2022-11-13T00:51:12;15.90;;;8.85;;
44328;SDS011;30039;51.462;6.892;2022-11-13T00:53:58;16.58;;;9.48;;
44328;SDS011;30039;51.462;6.892;2022-11-13T00:56:44;20.33;;;9.63;;
44328;SDS011;30039;51.462;6.892;2022-11-13T00:59:29;16.38;;;9.05;;
44328;SDS011;30039;51.462;6.892;2022-11-13T01:02:15;16.20;;;8.75;;
44328;SDS011;30039;51.462;6.892;2022-11-13T01:05:01;16.67;;;9.32;;
44328;SDS011;30039;51.462;6.892;2022-11-13T01:07:47;16.63;;;9.02;;
44328;SDS011;30039;51.462;6.892;2022-11-13T01:10:33;17.00;;;9.13;;
44328;SDS011;30039;51.462;6.892;2022-11-13T01:13:19;18.10;;;9.40;;
44328;SDS011;30039;51.462;6.892;2022-11-13T01:16:06;16.25;;;9.00;;
44328;SDS011;30039;51.462;6.892;2022-11-13T01:18:52;13.80;;;8.48;;
44328;SDS011;30039;51.462;6.892;2022-11-13T01:21:38;17.17;;;9.27;;
44328;SDS011;30039;51.462;6.892;2022-11-13T01:24:26;16.90;;;8.80;;
44328;SDS011;30039;51.462;6.892;2022-11-13T01:27:11;14.27;;;8.57;;
44328;SDS011;30039;51.462;6.892;2022-11-13T01:29:59;15.35;;;8.45;;
44328;SDS011;30039;51.462;6.892;2022-11-13T01:32:45;14.52;;;8.43;;
44328;SDS011;30039;51.462;6.892;2022-11-13T01:35:30;15.80;;;8.93;;
44328;SDS011;30039;51.462;6.892;2022-11-13T01:38:16;13.38;;;7.90;;
44328;SDS011;30039;51.462;6.892;2022-11-13T01:41:02;14.63;;;8.52;;
44328;SDS011;30039;51.462;6.892;2022-11-13T01:43:48;15.70;;;7.40;;
44328;SDS011;30039;51.462;6.892;2022-11-13T01:46:43;13.18;;;7.60;;
44328;SDS011;30039;51.462;6.892;2022-11-13T01:49:30;14.52;;;8.07;;
44328;SDS011;30039;51.462;6.892;2022-11-13T01:52:39;13.88;;;8.30;;
44328;SDS011;30039;51.462;6.892;2022-11-13T01:55:23;15.05;;;7.53;;
44328;SDS011;30039;51.462;6.892;2022-11-13T01:58:09;14.77;;;8.40;;
44328;SDS011;30039;51.462;6.892;2022-11-13T02:00:56;15.30;;;8.60;;
44328;SDS011;30039;51.462;6.892;2022-11-13T02:03:42;13.05;;;7.85;;
44328;SDS011;30039;51.462;6.892;2022-11-13T02:06:33;14.63;;;8.30;;
44328;SDS011;30039;51.462;6.892;2022-11-13T02:09:21;15.93;;;8.43;;
44328;SDS011;30039;51.462;6.892;2022-11-13T02:12:13;15.55;;;8.50;;
44328;SDS011;30039;51.462;6.892;2022-11-13T02:14:59;13.02;;;8.40;;
44328;SDS011;30039;51.462;6.892;2022-11-13T02:17:54;14.05;;;7.82;;
44328;SDS011;30039;51.462;6.892;2022-11-13T02:23:34;12.75;;;7.72;;
44328;SDS011;30039;51.462;6.892;2022-11-13T02:26:23;13.05;;;8.07;;
44328;SDS011;30039;51.462;6.892;2022-11-13T02:29:10;13.32;;;7.75;;
44328;SDS011;30039;51.462;6.892;2022-11-13T02:31:57;13.20;;;8.05;;
44328;SDS011;30039;51.462;6.892;2022-11-13T02:34:43;15.13;;;8.40;;
44328;SDS011;30039;51.462;6.892;2022-11-13T02:37:29;10.88;;;7.18;;
44328;SDS011;30039;51.462;6.892;2022-11-13T02:40:15;13.13;;;7.30;;
44328;SDS011;30039;51.462;6.892;2022-11-13T02:43:00;15.27;;;8.38;;
44328;SDS011;30039;51.462;6.892;2022-11-13T02:45:46;13.32;;;7.35;;
44328;SDS011;30039;51.462;6.892;2022-11-13T02:48:32;13.52;;;7.47;;
44328;SDS011;30039;51.462;6.892;2022-11-13T02:51:17;16.98;;;8.00;;
44328;SDS011;30039;51.462;6.892;2022-11-13T02:54:03;13.27;;;7.95;;
44328;SDS011;30039;51.462;6.892;2022-11-13T02:56:50;13.82;;;8.02;;
44328;SDS011;30039;51.462;6.892;2022-11-13T02:59:36;14.77;;;8.50;;
44328;SDS011;30039;51.462;6.892;2022-11-13T03:02:22;12.10;;;7.57;;
44328;SDS011;30039;51.462;6.892;2022-11-13T03:05:08;11.55;;;6.57;;
44328;SDS011;30039;51.462;6.892;2022-11-13T03:07:55;12.32;;;7.72;;
44328;SDS011;30039;51.462;6.892;2022-11-13T03:10:42;12.82;;;8.05;;
44328;SDS011;30039;51.462;6.892;2022-11-13T03:13:28;12.20;;;7.18;;
44328;SDS011;30039;51.462;6.892;2022-11-13T03:16:19;10.25;;;6.78;;
44328;SDS011;30039;51.462;6.892;2022-11-13T03:19:05;9.20;;;6.45;;
44328;SDS011;30039;51.462;6.892;2022-11-13T03:21:50;11.57;;;6.60;;
44328;SDS011;30039;51.462;6.892;2022-11-13T03:24:36;11.95;;;6.45;;
44328;SDS011;30039;51.462;6.892;2022-11-13T03:27:22;14.05;;;6.72;;
44328;SDS011;30039;51.462;6.892;2022-11-13T03:30:07;10.48;;;6.70;;
44328;SDS011;30039;51.462;6.892;2022-11-13T03:32:54;10.82;;;6.63;;
44328;SDS011;30039;51.462;6.892;2022-11-13T03:35:41;10.68;;;6.63;;
44328;SDS011;30039;51.462;6.892;2022-11-13T03:38:27;11.75;;;7.38;;
44328;SDS011;30039;51.462;6.892;2022-11-13T03:41:12;10.32;;;6.22;;
44328;SDS011;30039;51.462;6.892;2022-11-13T03:44:01;10.52;;;5.95;;
44328;SDS011;30039;51.462;6.892;2022-11-13T03:46:48;9.20;;;5.57;;
44328;SDS011;30039;51.462;6.892;2022-11-13T03:49:34;11.15;;;6.43;;
44328;SDS011;30039;51.462;6.892;2022-11-13T03:52:19;11.77;;;6.22;;
44328;SDS011;30039;51.462;6.892;2022-11-13T03:55:05;10.35;;;6.32;;
44328;SDS011;30039;51.462;6.892;2022-11-13T03:57:51;8.98;;;5.40;;
44328;SDS011;30039;51.462;6.892;2022-11-13T04:00:37;8.60;;;5.40;;
44328;SDS011;30039;51.462;6.892;2022-11-13T04:03:23;9.60;;;5.50;;
44328;SDS011;30039;51.462;6.892;2022-11-13T04:06:08;9.95;;;5.40;;
44328;SDS011;30039;51.462;6.892;2022-11-13T04:08:54;9.95;;;5.63;;
44328;SDS011;30039;51.462;6.892;2022-11-13T04:11:40;8.35;;;5.45;;
44328;SDS011;30039;51.462;6.892;2022-11-13T04:14:26;9.80;;;5.35;;
44328;SDS011;30039;51.462;6.892;2022-11-13T04:17:11;8.90;;;4.82;;
44328;SDS011;30039;51.462;6.892;2022-11-13T04:19:57;7.82;;;4.75;;
44328;SDS011;30039;51.462;6.892;2022-11-13T04:22:44;8.63;;;4.90;;
44328;SDS011;30039;51.462;6.892;2022-11-13T04:25:29;8.32;;;5.57;;
44328;SDS011;30039;51.462;6.892;2022-11-13T04:28:20;9.30;;;4.93;;
44328;SDS011;30039;51.462;6.892;2022-11-13T04:31:06;11.40;;;5.65;;
44328;SDS011;30039;51.462;6.892;2022-11-13T04:33:52;8.63;;;5.65;;
44328;SDS011;30039;51.462;6.892;2022-11-13T04:36:37;10.48;;;5.57;;
44328;SDS011;30039;51.462;6.892;2022-11-13T04:39:23;10.27;;;5.63;;
44328;SDS011;30039;51.462;6.892;2022-11-13T04:42:09;8.95;;;5.15;;
44328;SDS011;30039;51.462;6.892;2022-11-13T04:45:17;9.18;;;5.55;;
44328;SDS011;30039;51.462;6.892;2022-11-13T04:48:03;9.95;;;5.50;;
44328;SDS011;30039;51.462;6.892;2022-11-13T04:50:50;9.70;;;5.55;;
44328;SDS011;30039;51.462;6.892;2022-11-13T04:53:37;8.50;;;5.63;;
44328;SDS011;30039;51.462;6.892;2022-11-13T04:56:22;7.70;;;5.43;;
44328;SDS011;30039;51.462;6.892;2022-11-13T04:59:08;9.93;;;5.50;;
44328;SDS011;30039;51.462;6.892;2022-11-13T05:01:54;8.95;;;5.35;;
44328;SDS011;30039;51.462;6.892;2022-11-13T05:04:40;10.05;;;5.40;;
44328;SDS011;30039;51.462;6.892;2022-11-13T05:07:25;6.35;;;4.85;;
44328;SDS011;30039;51.462;6.892;2022-11-13T05:10:11;8.10;;;5.40;;
44328;SDS011;30039;51.462;6.892;2022-11-13T05:12:57;9.10;;;5.55;;
44328;SDS011;30039;51.462;6.892;2022-11-13T05:15:43;11.25;;;5.82;;
44328;SDS011;30039;51.462;6.892;2022-11-13T05:18:29;8.40;;;5.72;;
44328;SDS011;30039;51.462;6.892;2022-11-13T05:21:15;10.73;;;6.20;;
44328;SDS011;30039;51.462;6.892;2022-11-13T05:24:01;9.10;;;5.82;;
44328;SDS011;30039;51.462;6.892;2022-11-13T05:26:46;11.00;;;5.97;;
44328;SDS011;30039;51.462;6.892;2022-11-13T05:29:34;9.23;;;5.72;;
44328;SDS011;30039;51.462;6.892;2022-11-13T05:32:20;9.40;;;5.22;;
44328;SDS011;30039;51.462;6.892;2022-11-13T05:35:06;11.68;;;5.85;;
44328;SDS011;30039;51.462;6.892;2022-11-13T05:37:51;11.55;;;6.75;;
44328;SDS011;30039;51.462;6.892;2022-11-13T05:40:37;10.07;;;6.22;;
44328;SDS011;30039;51.462;6.892;2022-11-13T05:43:23;11.25;;;6.38;;
44328;SDS011;30039;51.462;6.892;2022-11-13T05:46:12;11.48;;;6.50;;
44328;SDS011;30039;51.462;6.892;2022-11-13T05:49:00;12.38;;;6.70;;
44328;SDS011;30039;51.462;6.892;2022-11-13T05:51:46;16.25;;;6.68;;
44328;SDS011;30039;51.462;6.892;2022-11-13T05:54:32;10.27;;;6.10;;
44328;SDS011;30039;51.462;6.892;2022-11-13T05:57:17;16.67;;;6.82;;
44328;SDS011;30039;51.462;6.892;2022-11-13T06:00:03;9.98;;;6.20;;
44328;SDS011;30039;51.462;6.892;2022-11-13T06:02:49;10.50;;;6.55;;
44328;SDS011;30039;51.462;6.892;2022-11-13T06:05:36;12.75;;;6.50;;
44328;SDS011;30039;51.462;6.892;2022-11-13T06:08:22;12.13;;;6.35;;
44328;SDS011;30039;51.462;6.892;2022-11-13T06:11:08;9.65;;;6.25;;
44328;SDS011;30039;51.462;6.892;2022-11-13T06:13:55;9.02;;;6.13;;
44328;SDS011;30039;51.462;6.892;2022-11-13T06:16:41;10.73;;;6.50;;
44328;SDS011;30039;51.462;6.892;2022-11-13T06:19:27;11.73;;;6.72;;
44328;SDS011;30039;51.462;6.892;2022-11-13T06:22:12;11.73;;;6.63;;
44328;SDS011;30039;51.462;6.892;2022-11-13T06:24:59;9.80;;;5.82;;
44328;SDS011;30039;51.462;6.892;2022-11-13T06:27:45;8.85;;;6.05;;
44328;SDS011;30039;51.462;6.892;2022-11-13T06:30:31;9.10;;;5.72;;
44328;SDS011;30039;51.462;6.892;2022-11-13T06:33:19;9.27;;;6.00;;
44328;SDS011;30039;51.462;6.892;2022-11-13T06:36:05;17.77;;;7.00;;
44328;SDS011;30039;51.462;6.892;2022-11-13T06:38:51;10.23;;;5.93;;
44328;SDS011;30039;51.462;6.892;2022-11-13T06:41:37;13.20;;;5.32;;
44328;SDS011;30039;51.462;6.892;2022-11-13T06:44:23;8.80;;;5.50;;
44328;SDS011;30039;51.462;6.892;2022-11-13T06:47:11;9.75;;;5.50;;
44328;SDS011;30039;51.462;6.892;2022-11-13T06:49:57;8.65;;;5.65;;
44328;SDS011;30039;51.462;6.892;2022-11-13T06:52:42;9.07;;;5.38;;
44328;SDS011;30039;51.462;6.892;2022-11-13T06:55:31;12.38;;;5.85;;
44328;SDS011;30039;51.462;6.892;2022-11-13T06:58:18;9.65;;;5.78;;
44328;SDS011;30039;51.462;6.892;2022-11-13T07:01:05;9.82;;;6.05;;
44328;SDS011;30039;51.462;6.892;2022-11-13T07:03:52;10.23;;;5.50;;
44328;SDS011;30039;51.462;6.892;2022-11-13T07:06:38;10.93;;;6.05;;
44328;SDS011;30039;51.462;6.892;2022-11-13T07:09:24;10.25;;;6.05;;
44328;SDS011;30039;51.462;6.892;2022-11-13T07:12:12;10.93;;;5.25;;
44328;SDS011;30039;51.462;6.892;2022-11-13T07:14:58;7.90;;;4.82;;
44328;SDS011;30039;51.462;6.892;2022-11-13T07:17:45;7.38;;;4.75;;
44328;SDS011;30039;51.462;6.892;2022-11-13T07:20:33;8.43;;;4.53;;
44328;SDS011;30039;51.462;6.892;2022-11-13T07:23:20;6.50;;;4.03;;
44328;SDS011;30039;51.462;6.892;2022-11-13T07:26:05;10.35;;;4.80;;
44328;SDS011;30039;51.462;6.892;2022-11-13T07:28:53;11.02;;;5.60;;
44328;SDS011;30039;51.462;6.892;2022-11-13T07:31:39;8.95;;;5.55;;
44328;SDS011;30039;51.462;6.892;2022-11-13T07:34:27;8.30;;;5.32;;
44328;SDS011;30039;51.462;6.892;2022-11-13T07:37:13;9.35;;;4.72;;
44328;SDS011;30039;51.462;6.892;2022-11-13T07:39:59;7.70;;;4.80;;
44328;SDS011;30039;51.462;6.892;2022-11-13T07:42:44;9.05;;;5.13;;
44328;SDS011;30039;51.462;6.892;2022-11-13T07:45:30;10.00;;;5.65;;
44328;SDS011;30039;51.462;6.892;2022-11-13T07:48:16;11.20;;;5.90;;
44328;SDS011;30039;51.462;6.892;2022-11-13T07:51:01;12.02;;;6.82;;
44328;SDS011;30039;51.462;6.892;2022-11-13T07:53:48;8.80;;;5.57;;
44328;SDS011;30039;51.462;6.892;2022-11-13T07:56:34;10.70;;;6.18;;
44328;SDS011;30039;51.462;6.892;2022-11-13T07:59:21;9.75;;;5.70;;
44328;SDS011;30039;51.462;6.892;2022-11-13T08:02:10;10.55;;;6.45;;
44328;SDS011;30039;51.462;6.892;2022-11-13T08:04:59;10.43;;;6.10;;
44328;SDS011;30039;51.462;6.892;2022-11-13T08:07:49;15.43;;;7.30;;
44328;SDS011;30039;51.462;6.892;2022-11-13T08:10:34;11.48;;;6.57;;
44328;SDS011;30039;51.462;6.892;2022-11-13T08:13:21;7.95;;;5.80;;
44328;SDS011;30039;51.462;6.892;2022-11-13T08:16:07;10.55;;;6.32;;
44328;SDS011;30039;51.462;6.892;2022-11-13T08:18:53;14.75;;;7.13;;
44328;SDS011;30039;51.462;6.892;2022-11-13T08:21:39;12.48;;;8.10;;
44328;SDS011;30039;51.462;6.892;2022-11-13T08:24:24;13.15;;;8.00;;
44328;SDS011;30039;51.462;6.892;2022-11-13T08:27:14;10.52;;;7.35;;
44328;SDS011;30039;51.462;6.892;2022-11-13T08:30:00;11.38;;;6.68;;
44328;SDS011;30039;51.462;6.892;2022-11-13T08:32:46;14.45;;;7.05;;
44328;SDS011;30039;51.462;6.892;2022-11-13T08:35:33;12.40;;;7.13;;
44328;SDS011;30039;51.462;6.892;2022-11-13T08:38:19;13.10;;;7.05;;
44328;SDS011;30039;51.462;6.892;2022-11-13T08:41:07;10.75;;;7.05;;
44328;SDS011;30039;51.462;6.892;2022-11-13T08:43:53;8.98;;;6.20;;
44328;SDS011;30039;51.462;6.892;2022-11-13T08:46:38;12.77;;;6.57;;
44328;SDS011;30039;51.462;6.892;2022-11-13T08:49:25;11.63;;;7.03;;
44328;SDS011;30039;51.462;6.892;2022-11-13T08:52:12;11.80;;;7.13;;
44328;SDS011;30039;51.462;6.892;2022-11-13T08:54:58;12.40;;;7.38;;
44328;SDS011;30039;51.462;6.892;2022-11-13T08:57:44;9.68;;;6.75;;
44328;SDS011;30039;51.462;6.892;2022-11-13T09:00:30;11.88;;;7.32;;
44328;SDS011;30039;51.462;6.892;2022-11-13T09:03:16;10.43;;;6.75;;
44328;SDS011;30039;51.462;6.892;2022-11-13T09:06:05;12.00;;;6.88;;
44328;SDS011;30039;51.462;6.892;2022-11-13T09:08:53;9.65;;;6.40;;
44328;SDS011;30039;51.462;6.892;2022-11-13T09:11:40;8.18;;;5.88;;
44328;SDS011;30039;51.462;6.892;2022-11-13T09:14:27;10.32;;;6.60;;
44328;SDS011;30039;51.462;6.892;2022-11-13T09:17:14;10.95;;;6.88;;
44328;SDS011;30039;51.462;6.892;2022-11-13T09:19:59;11.48;;;7.10;;
44328;SDS011;30039;51.462;6.892;2022-11-13T09:22:45;12.77;;;8.93;;
44328;SDS011;30039;51.462;6.892;2022-11-13T09:25:32;11.80;;;6.35;;
44328;SDS011;30039;51.462;6.892;2022-11-13T09:28:18;10.52;;;5.93;;
44328;SDS011;30039;51.462;6.892;2022-11-13T09:31:04;10.10;;;6.15;;
44328;SDS011;30039;51.462;6.892;2022-11-13T09:33:50;8.38;;;5.70;;
44328;SDS011;30039;51.462;6.892;2022-11-13T09:36:39;7.68;;;5.32;;
44328;SDS011;30039;51.462;6.892;2022-11-13T09:39:25;7.93;;;4.80;;
44328;SDS011;30039;51.462;6.892;2022-11-13T09:42:20;8.25;;;5.03;;
44328;SDS011;30039;51.462;6.892;2022-11-13T09:45:09;7.07;;;3.95;;
44328;SDS011;30039;51.462;6.892;2022-11-13T09:48:11;6.82;;;4.18;;
44328;SDS011;30039;51.462;6.892;2022-11-13T09:50:58;5.60;;;4.03;;
44328;SDS011;30039;51.462;6.892;2022-11-13T09:53:44;8.00;;;3.88;;
44328;SDS011;30039;51.462;6.892;2022-11-13T09:56:32;6.72;;;4.07;;
44328;SDS011;30039;51.462;6.892;2022-11-13T10:05:12;5.45;;;3.55;;
44328;SDS011;30039;51.462;6.892;2022-11-13T10:08:46;4.90;;;3.83;;
44328;SDS011;30039;51.462;6.892;2022-11-13T10:11:35;6.63;;;3.67;;
44328;SDS011;30039;51.462;6.892;2022-11-13T10:14:28;7.03;;;4.20;;
44328;SDS011;30039;51.462;6.892;2022-11-13T10:17:27;8.60;;;4.50;;
44328;SDS011;30039;51.462;6.892;2022-11-13T10:20:15;6.88;;;4.47;;
44328;SDS011;30039;51.462;6.892;2022-11-13T10:23:07;7.65;;;4.65;;
44328;SDS011;30039;51.462;6.892;2022-11-13T10:25:53;7.88;;;4.50;;
44328;SDS011;30039;51.462;6.892;2022-11-13T10:28:41;9.60;;;4.88;;
44328;SDS011;30039;51.462;6.892;2022-11-13T10:37:55;9.85;;;4.97;;
44328;SDS011;30039;51.462;6.892;2022-11-13T10:40:43;8.10;;;5.40;;
44328;SDS011;30039;51.462;6.892;2022-11-13T10:43:28;10.10;;;5.10;;
44328;SDS011;30039;51.462;6.892;2022-11-13T10:49:37;9.32;;;5.07;;
44328;SDS011;30039;51.462;6.892;2022-11-13T10:52:26;8.02;;;5.20;;
44328;SDS011;30039;51.462;6.892;2022-11-13T10:55:20;6.88;;;4.75;;
44328;SDS011;30039;51.462;6.892;2022-11-13T10:58:11;8.30;;;4.50;;
44328;SDS011;30039;51.462;6.892;2022-11-13T11:00:57;6.22;;;4.18;;
44328;SDS011;30039;51.462;6.892;2022-11-13T11:03:50;7.00;;;4.32;;
44328;SDS011;30039;51.462;6.892;2022-11-13T11:06:37;6.05;;;3.80;;
44328;SDS011;30039;51.462;6.892;2022-11-13T11:09:27;8.82;;;4.43;;
44328;SDS011;30039;51.462;6.892;2022-11-13T11:12:16;7.65;;;4.93;;
44328;SDS011;30039;51.462;6.892;2022-11-13T11:15:09;8.63;;;5.53;;
44328;SDS011;30039;51.462;6.892;2022-11-13T11:18:01;8.65;;;4.65;;
44328;SDS011;30039;51.462;6.892;2022-11-13T11:20:49;8.68;;;5.22;;
44328;SDS011;30039;51.462;6.892;2022-11-13T11:23:40;10.82;;;5.03;;
44328;SDS011;30039;51.462;6.892;2022-11-13T11:26:31;7.57;;;4.65;;
44328;SDS011;30039;51.462;6.892;2022-11-13T11:32:14;7.38;;;4.80;;
44328;SDS011;30039;51.462;6.892;2022-11-13T11:41:42;6.63;;;4.40;;
44328;SDS011;30039;51.462;6.892;2022-11-13T11:44:48;10.50;;;4.90;;
44328;SDS011;30039;51.462;6.892;2022-11-13T11:47:37;7.50;;;4.78;;
44328;SDS011;30039;51.462;6.892;2022-11-13T11:50:47;7.10;;;4.85;;
44328;SDS011;30039;51.462;6.892;2022-11-13T11:56:45;8.65;;;4.75;;
44328;SDS011;30039;51.462;6.892;2022-11-13T12:05:43;6.63;;;4.90;;
44328;SDS011;30039;51.462;6.892;2022-11-13T12:11:40;6.13;;;4.07;;
44328;SDS011;30039;51.462;6.892;2022-11-13T12:14:46;7.15;;;4.53;;
44328;SDS011;30039;51.462;6.892;2022-11-13T12:20:50;8.13;;;4.65;;
44328;SDS011;30039;51.462;6.892;2022-11-13T12:23:42;10.45;;;4.65;;
44328;SDS011;30039;51.462;6.892;2022-11-13T12:32:26;7.45;;;4.22;;
44328;SDS011;30039;51.462;6.892;2022-11-13T12:35:15;6.82;;;4.65;;
44328;SDS011;30039;51.462;6.892;2022-11-13T12:38:10;8.07;;;4.75;;
44328;SDS011;30039;51.462;6.892;2022-11-13T12:41:05;7.15;;;4.10;;
44328;SDS011;30039;51.462;6.892;2022-11-13T12:46:59;9.45;;;3.97;;
44328;SDS011;30039;51.462;6.892;2022-11-13T12:49:45;6.70;;;4.22;;
44328;SDS011;30039;51.462;6.892;2022-11-13T12:52:31;6.90;;;3.60;;
44328;SDS011;30039;51.462;6.892;2022-11-13T12:55:24;5.95;;;3.25;;
44328;SDS011;30039;51.462;6.892;2022-11-13T13:09:41;6.72;;;3.63;;
44328;SDS011;30039;51.462;6.892;2022-11-13T13:15:26;4.82;;;3.35;;
44328;SDS011;30039;51.462;6.892;2022-11-13T13:21:07;5.30;;;2.97;;
44328;SDS011;30039;51.462;6.892;2022-11-13T13:23:54;4.90;;;2.75;;
44328;SDS011;30039;51.462;6.892;2022-11-13T13:26:50;5.18;;;2.75;;
44328;SDS011;30039;51.462;6.892;2022-11-13T13:29:38;6.30;;;3.15;;
44328;SDS011;30039;51.462;6.892;2022-11-13T13:35:36;4.68;;;2.88;;
44328;SDS011;30039;51.462;6.892;2022-11-13T13:38:26;6.35;;;3.10;;
44328;SDS011;30039;51.462;6.892;2022-11-13T13:46:55;4.55;;;2.90;;
44328;SDS011;30039;51.462;6.892;2022-11-13T13:49:42;6.13;;;3.28;;
44328;SDS011;30039;51.462;6.892;2022-11-13T13:52:28;4.70;;;2.83;;
44328;SDS011;30039;51.462;6.892;2022-11-13T13:55:16;4.75;;;3.10;;
44328;SDS011;30039;51.462;6.892;2022-11-13T13:58:12;5.05;;;2.90;;
44328;SDS011;30039;51.462;6.892;2022-11-13T14:01:00;4.63;;;2.90;;
44328;SDS011;30039;51.462;6.892;2022-11-13T14:03:47;3.95;;;2.70;;
44328;SDS011;30039;51.462;6.892;2022-11-13T14:06:36;5.70;;;3.08;;
44328;SDS011;30039;51.462;6.892;2022-11-13T14:09:32;11.23;;;3.58;;
44328;SDS011;30039;51.462;6.892;2022-11-13T14:12:20;4.68;;;3.10;;
44328;SDS011;30039;51.462;6.892;2022-11-13T14:15:14;5.30;;;2.85;;
44328;SDS011;30039;51.462;6.892;2022-11-13T14:18:07;3.55;;;2.42;;
44328;SDS011;30039;51.462;6.892;2022-11-13T14:20:54;5.30;;;2.35;;
44328;SDS011;30039;51.462;6.892;2022-11-13T14:23:42;11.10;;;2.60;;
44328;SDS011;30039;51.462;6.892;2022-11-13T14:26:29;4.00;;;2.70;;
44328;SDS011;30039;51.462;6.892;2022-11-13T14:29:20;5.57;;;2.50;;
44328;SDS011;30039;51.462;6.892;2022-11-13T14:32:12;3.90;;;2.50;;
44328;SDS011;30039;51.462;6.892;2022-11-13T14:35:00;4.57;;;2.45;;
44328;SDS011;30039;51.462;6.892;2022-11-13T14:37:47;3.42;;;2.20;;
44328;SDS011;30039;51.462;6.892;2022-11-13T14:40:34;4.03;;;2.55;;
44328;SDS011;30039;51.462;6.892;2022-11-13T14:43:23;4.30;;;2.55;;
44328;SDS011;30039;51.462;6.892;2022-11-13T14:46:26;5.82;;;3.10;;
44328;SDS011;30039;51.462;6.892;2022-11-13T14:49:33;4.78;;;2.95;;
44328;SDS011;30039;51.462;6.892;2022-11-13T14:52:25;6.22;;;3.42;;
44328;SDS011;30039;51.462;6.892;2022-11-13T15:01:19;6.32;;;3.55;;
44328;SDS011;30039;51.462;6.892;2022-11-13T15:04:05;6.00;;;3.40;;
44328;SDS011;30039;51.462;6.892;2022-11-13T15:06:51;5.70;;;3.90;;
44328;SDS011;30039;51.462;6.892;2022-11-13T15:09:40;7.35;;;3.95;;
44328;SDS011;30039;51.462;6.892;2022-11-13T15:12:25;5.28;;;3.85;;
44328;SDS011;30039;51.462;6.892;2022-11-13T15:15:17;5.97;;;3.63;;
44328;SDS011;30039;51.462;6.892;2022-11-13T15:18:05;8.75;;;3.97;;
44328;SDS011;30039;51.462;6.892;2022-11-13T15:20:52;6.13;;;3.88;;
44328;SDS011;30039;51.462;6.892;2022-11-13T15:23:38;8.23;;;3.72;;
44328;SDS011;30039;51.462;6.892;2022-11-13T15:26:25;7.07;;;3.85;;
44328;SDS011;30039;51.462;6.892;2022-11-13T15:29:12;9.40;;;4.20;;
44328;SDS011;30039;51.462;6.892;2022-11-13T15:31:57;7.38;;;4.45;;
44328;SDS011;30039;51.462;6.892;2022-11-13T15:34:43;6.28;;;4.15;;
44328;SDS011;30039;51.462;6.892;2022-11-13T15:37:29;7.90;;;4.07;;
44328;SDS011;30039;51.462;6.892;2022-11-13T15:40:15;7.38;;;4.13;;
44328;SDS011;30039;51.462;6.892;2022-11-13T15:43:02;7.47;;;4.10;;
44328;SDS011;30039;51.462;6.892;2022-11-13T15:45:48;6.95;;;4.38;;
44328;SDS011;30039;51.462;6.892;2022-11-13T15:48:36;7.47;;;4.63;;
44328;SDS011;30039;51.462;6.892;2022-11-13T15:54:31;5.88;;;4.30;;
44328;SDS011;30039;51.462;6.892;2022-11-13T15:57:25;9.43;;;4.55;;
44328;SDS011;30039;51.462;6.892;2022-11-13T16:00:13;9.43;;;4.60;;
44328;SDS011;30039;51.462;6.892;2022-11-13T16:03:00;6.18;;;4.85;;
44328;SDS011;30039;51.462;6.892;2022-11-13T16:05:48;8.30;;;5.07;;
44328;SDS011;30039;51.462;6.892;2022-11-13T16:11:58;12.00;;;6.47;;
44328;SDS011;30039;51.462;6.892;2022-11-13T16:14:46;9.55;;;5.72;;
44328;SDS011;30039;51.462;6.892;2022-11-13T16:17:32;9.60;;;5.70;;
44328;SDS011;30039;51.462;6.892;2022-11-13T16:20:22;7.90;;;4.72;;
44328;SDS011;30039;51.462;6.892;2022-11-13T16:23:09;6.63;;;4.43;;
44328;SDS011;30039;51.462;6.892;2022-11-13T16:25:59;6.68;;;4.40;;
44328;SDS011;30039;51.462;6.892;2022-11-13T16:28:49;10.07;;;4.55;;
44328;SDS011;30039;51.462;6.892;2022-11-13T16:31:36;6.65;;;4.38;;
44328;SDS011;30039;51.462;6.892;2022-11-13T16:34:23;6.97;;;4.78;;
44328;SDS011;30039;51.462;6.892;2022-11-13T16:37:19;9.27;;;4.75;;
44328;SDS011;30039;51.462;6.892;2022-11-13T16:40:13;6.78;;;4.50;;
44328;SDS011;30039;51.462;6.892;2022-11-13T16:43:01;7.70;;;5.00;;
44328;SDS011;30039;51.462;6.892;2022-11-13T16:45:46;7.85;;;4.85;;
44328;SDS011;30039;51.462;6.892;2022-11-13T16:48:32;8.98;;;5.40;;
44328;SDS011;30039;51.462;6.892;2022-11-13T16:51:18;9.60;;;5.72;;
44328;SDS011;30039;51.462;6.892;2022-11-13T16:54:04;7.55;;;5.03;;
44328;SDS011;30039;51.462;6.892;2022-11-13T16:56:49;10.27;;;5.90;;
44328;SDS011;30039;51.462;6.892;2022-11-13T16:59:35;10.82;;;5.90;;
44328;SDS011;30039;51.462;6.892;2022-11-13T17:02:22;10.43;;;6.35;;
44328;SDS011;30039;51.462;6.892;2022-11-13T17:08:00;10.52;;;6.88;;
44328;SDS011;30039;51.462;6.892;2022-11-13T17:10:54;9.80;;;6.70;;
44328;SDS011;30039;51.462;6.892;2022-11-13T17:13:40;11.53;;;6.63;;
44328;SDS011;30039;51.462;6.892;2022-11-13T17:16:26;10.55;;;6.97;;
44328;SDS011;30039;51.462;6.892;2022-11-13T17:19:13;10.63;;;6.95;;
44328;SDS011;30039;51.462;6.892;2022-11-13T17:21:59;11.85;;;7.32;;
44328;SDS011;30039;51.462;6.892;2022-11-13T17:24:44;16.00;;;7.55;;
44328;SDS011;30039;51.462;6.892;2022-11-13T17:27:30;15.15;;;7.80;;
44328;SDS011;30039;51.462;6.892;2022-11-13T17:30:16;12.55;;;7.00;;
44328;SDS011;30039;51.462;6.892;2022-11-13T17:33:02;13.88;;;8.10;;
44328;SDS011;30039;51.462;6.892;2022-11-13T17:35:57;12.10;;;7.00;;
44328;SDS011;30039;51.462;6.892;2022-11-13T17:38:44;9.90;;;5.82;;
44328;SDS011;30039;51.462;6.892;2022-11-13T17:41:30;12.35;;;7.63;;
44328;SDS011;30039;51.462;6.892;2022-11-13T17:44:16;60.45;;;22.63;;
44328;SDS011;30039;51.462;6.892;2022-11-13T17:47:04;10.48;;;6.75;;
44328;SDS011;30039;51.462;6.892;2022-11-13T17:49:51;8.35;;;5.68;;
44328;SDS011;30039;51.462;6.892;2022-11-13T17:52:37;6.68;;;5.00;;
44328;SDS011;30039;51.462;6.892;2022-11-13T17:55:24;9.55;;;5.15;;
44328;SDS011;30039;51.462;6.892;2022-11-13T17:58:13;10.27;;;6.38;;
44328;SDS011;30039;51.462;6.892;2022-11-13T18:01:03;8.50;;;5.70;;
44328;SDS011;30039;51.462;6.892;2022-11-13T18:03:53;10.88;;;5.82;;
44328;SDS011;30039;51.462;6.892;2022-11-13T18:06:40;8.20;;;5.60;;
44328;SDS011;30039;51.462;6.892;2022-11-13T18:09:26;7.88;;;5.20;;
44328;SDS011;30039;51.462;6.892;2022-11-13T18:12:12;7.57;;;5.10;;
44328;SDS011;30039;51.462;6.892;2022-11-13T18:14:58;9.88;;;5.85;;
44328;SDS011;30039;51.462;6.892;2022-11-13T18:17:46;9.48;;;6.05;;
44328;SDS011;30039;51.462;6.892;2022-11-13T18:20:33;9.07;;;5.88;;